createdAt,value
2023-04-02T00:09:24.235Z,4.34
2023-04-02T00:19:33.334Z,7.08
2023-04-02T00:29:42.001Z,6.51
2023-04-02T00:39:54.267Z,5.46
2023-04-02T00:59:55.476Z,3.53
2023-04-02T01:10:04.431Z,3.09
2023-04-02T01:20:13.435Z,2.64
2023-04-02T01:40:15.666Z,3.72
2023-04-02T01:50:26.507Z,3.14
2023-04-02T02:00:29.542Z,2.78
2023-04-02T02:10:38.318Z,3.61
2023-04-02T02:20:47.196Z,2.39
2023-04-02T02:30:58.250Z,3.14
2023-04-02T02:40:57.172Z,4.04
2023-04-02T02:51:08.616Z,2.68
2023-04-02T03:01:07.133Z,2.39
2023-04-02T03:11:17.305Z,3.34
2023-04-02T03:21:16.264Z,2.01
2023-04-02T03:31:26.649Z,2.12
2023-04-02T03:41:27.976Z,1.79
2023-04-02T03:51:28.946Z,1.96
2023-04-02T04:01:28.049Z,2.74
2023-04-02T04:11:38.160Z,1.92
2023-04-02T04:21:37.277Z,1.11
2023-04-02T04:31:45.991Z,1.29
2023-04-02T04:41:56.851Z,1.99
2023-04-02T04:51:55.702Z,1.55
2023-04-02T05:02:05.236Z,1.76
2023-04-02T05:12:14.118Z,1.89
2023-04-02T05:22:23.350Z,1.02
2023-04-02T05:32:32.085Z,2.29
2023-04-02T05:42:41.154Z,1.45
2023-04-02T05:53:01.461Z,2.51
2023-04-02T06:02:55.082Z,1.94
2023-04-02T06:12:53.928Z,2.23
2023-04-02T06:23:04.755Z,1.55
2023-04-02T06:33:09.282Z,1.3
2023-04-02T06:43:08.262Z,2.47
2023-04-02T06:53:16.485Z,1.8
2023-04-02T07:03:27.433Z,1.64
2023-04-02T07:13:27.820Z,0.86
2023-04-02T07:23:36.647Z,1.56
2023-04-02T07:33:46.806Z,2.1
2023-04-02T07:43:46.596Z,3.93
2023-04-02T07:53:55.557Z,2.36
2023-04-02T08:04:03.839Z,1.95
